createdAt,value
2022-11-29T00:01:28.701Z,13.68
2022-11-29T00:04:30.129Z,13.32
2022-11-29T00:07:31.568Z,11.37
2022-11-29T00:10:36.847Z,10.95
2022-11-29T00:13:38.399Z,13.48
2022-11-29T00:16:41.074Z,13.77
2022-11-29T00:19:42.606Z,10.48
2022-11-29T00:22:44.048Z,11.13
2022-11-29T00:25:45.511Z,10.47
2022-11-29T00:28:46.999Z,12.93
2022-11-29T00:31:48.408Z,13.97
2022-11-29T00:34:49.781Z,10.13
2022-11-29T00:37:51.162Z,13.48
2022-11-29T00:40:52.832Z,11.00
2022-11-29T00:43:54.608Z,10.80
2022-11-29T00:46:56.022Z,10.07
2022-11-29T00:49:57.439Z,10.83
2022-11-29T00:52:58.822Z,9.57
2022-11-29T00:56:00.507Z,8.80
2022-11-29T00:59:01.934Z,9.48
2022-11-29T01:02:03.606Z,13.43
2022-11-29T01:05:05.414Z,11.73
2022-11-29T01:08:06.924Z,9.93
2022-11-29T01:11:13.062Z,9.67
2022-11-29T01:14:14.528Z,13.18
2022-11-29T01:17:15.978Z,10.77
2022-11-29T01:20:17.470Z,10.70
2022-11-29T01:23:18.874Z,9.90
2022-11-29T01:26:26.032Z,9.32
2022-11-29T01:29:27.407Z,11.57
2022-11-29T01:32:28.872Z,18.77
2022-11-29T01:35:30.277Z,10.50
2022-11-29T01:38:31.927Z,10.55
2022-11-29T01:41:35.355Z,13.60
2022-11-29T01:44:36.683Z,8.13
2022-11-29T01:47:43.676Z,7.95
2022-11-29T01:50:45.214Z,11.85
2022-11-29T01:53:47.007Z,15.00
2022-11-29T01:56:50.615Z,10.00
2022-11-29T01:59:58.020Z,8.15
2022-11-29T02:03:12.317Z,9.85
2022-11-29T02:06:15.688Z,9.77
2022-11-29T02:09:22.629Z,12.82
2022-11-29T02:12:45.980Z,9.27
2022-11-29T02:16:15.723Z,9.98
2022-11-29T02:19:53.291Z,10.55
2022-11-29T02:23:23.383Z,9.95
2022-11-29T02:26:43.482Z,10.50
2022-11-29T02:30:29.088Z,13.60
2022-11-29T02:33:52.256Z,8.65
2022-11-29T02:37:22.517Z,9.82
2022-11-29T02:41:01.524Z,11.38
2022-11-29T02:44:26.899Z,10.20
2022-11-29T02:47:53.906Z,9.52
2022-11-29T02:51:05.411Z,8.50
2022-11-29T02:54:20.400Z,11.00
2022-11-29T02:57:36.575Z,9.00
2022-11-29T03:00:47.981Z,7.40
2022-11-29T03:04:15.217Z,12.77
2022-11-29T03:07:28.728Z,12.38
2022-11-29T03:10:48.162Z,8.85
2022-11-29T03:14:21.798Z,8.93
2022-11-29T03:17:48.285Z,8.70
2022-11-29T03:21:05.128Z,11.73
2022-11-29T03:24:16.020Z,8.50
2022-11-29T03:27:28.465Z,10.32
2022-11-29T03:33:47.096Z,9.25
2022-11-29T03:37:19.907Z,8.95
2022-11-29T03:43:36.701Z,10.43
2022-11-29T03:46:47.739Z,8.57
2022-11-29T03:49:59.543Z,8.48
2022-11-29T03:53:12.737Z,8.45
2022-11-29T03:56:31.906Z,9.20
2022-11-29T03:59:45.587Z,7.28
2022-11-29T04:02:56.471Z,11.98
2022-11-29T04:06:18.063Z,9.07
2022-11-29T04:09:46.472Z,10.02
2022-11-29T04:13:12.670Z,9.45
2022-11-29T04:16:39.012Z,8.85
2022-11-29T04:20:18.104Z,7.95
2022-11-29T04:23:38.729Z,8.23
2022-11-29T04:27:01.673Z,7.22
2022-11-29T04:30:18.297Z,8.50
2022-11-29T04:33:32.726Z,7.78
2022-11-29T04:36:34.057Z,7.85
2022-11-29T04:39:51.542Z,12.45
2022-11-29T04:43:11.404Z,13.65
2022-11-29T04:46:54.342Z,11.75
2022-11-29T04:53:23.891Z,11.70
2022-11-29T04:56:46.503Z,11.52
2022-11-29T05:03:38.731Z,10.30
2022-11-29T05:07:02.126Z,11.35
2022-11-29T05:10:17.891Z,13.35
2022-11-29T05:13:38.915Z,11.90
2022-11-29T05:17:04.205Z,10.05
2022-11-29T05:20:27.065Z,10.70
2022-11-29T05:23:54.772Z,12.70
2022-11-29T05:27:35.226Z,14.27
2022-11-29T05:31:06.429Z,14.45
2022-11-29T05:34:34.914Z,11.23
2022-11-29T05:37:50.385Z,13.35
2022-11-29T05:41:29.265Z,14.18
2022-11-29T05:44:38.481Z,10.95
2022-11-29T05:47:48.932Z,11.55
2022-11-29T05:51:06.235Z,15.10
2022-11-29T05:54:13.801Z,12.48
2022-11-29T05:57:49.036Z,15.52
2022-11-29T06:01:27.948Z,17.55
2022-11-29T06:04:41.183Z,15.30
2022-11-29T06:08:08.051Z,13.10
2022-11-29T06:11:24.067Z,9.88
2022-11-29T06:14:47.237Z,10.93
2022-11-29T06:18:07.010Z,11.82
2022-11-29T06:21:46.252Z,14.35
2022-11-29T06:25:18.528Z,10.82
2022-11-29T06:28:45.428Z,12.38
2022-11-29T06:31:53.256Z,13.70
2022-11-29T06:35:03.539Z,13.77
2022-11-29T06:38:20.493Z,11.65
2022-11-29T06:41:23.690Z,14.05
2022-11-29T06:44:25.378Z,16.00
2022-11-29T06:47:42.470Z,13.77
2022-11-29T06:50:56.963Z,17.17
2022-11-29T06:54:36.111Z,16.13
2022-11-29T06:57:49.287Z,17.45
2022-11-29T07:01:00.869Z,14.95
2022-11-29T07:04:15.342Z,12.83
2022-11-29T07:07:22.503Z,14.07
2022-11-29T07:10:24.726Z,12.80
2022-11-29T07:13:26.396Z,11.00
2022-11-29T07:16:33.917Z,11.02
2022-11-29T07:19:53.762Z,10.98
2022-11-29T07:23:21.206Z,11.68
2022-11-29T07:26:33.920Z,10.52
2022-11-29T07:29:41.353Z,17.98
2022-11-29T07:33:21.559Z,14.20
2022-11-29T07:36:45.081Z,12.52
2022-11-29T07:40:03.358Z,17.45
2022-11-29T07:43:20.212Z,14.82
2022-11-29T07:46:21.651Z,16.98
2022-11-29T07:49:23.074Z,11.63
2022-11-29T07:52:26.867Z,12.90
2022-11-29T07:55:29.568Z,12.57
2022-11-29T07:58:31.042Z,15.77
2022-11-29T08:01:32.510Z,15.70
2022-11-29T08:04:34.054Z,15.02
2022-11-29T08:07:40.508Z,17.63
2022-11-29T08:10:41.968Z,15.57
2022-11-29T08:13:43.360Z,15.00
2022-11-29T08:16:44.780Z,15.33
2022-11-29T08:19:46.300Z,16.37
2022-11-29T08:22:58.944Z,13.83
2022-11-29T08:29:02.410Z,12.53
2022-11-29T08:32:04.215Z,14.27
2022-11-29T08:35:05.860Z,10.05
2022-11-29T08:38:07.255Z,13.67
2022-11-29T08:41:11.462Z,13.95
2022-11-29T08:44:13.044Z,14.57
2022-11-29T08:47:32.687Z,13.93
2022-11-29T08:50:34.241Z,13.50
2022-11-29T08:53:41.461Z,13.70
2022-11-29T08:57:30.965Z,12.45
2022-11-29T09:00:05.386Z,14.85
2022-11-29T09:03:26.250Z,16.33
2022-11-29T09:06:33.572Z,13.00
2022-11-29T09:09:34.965Z,11.90
2022-11-29T09:12:37.210Z,11.70
2022-11-29T09:15:39.478Z,13.70
2022-11-29T09:18:43.172Z,12.30
2022-11-29T09:21:47.496Z,12.93
2022-11-29T09:24:48.987Z,13.40
2022-11-29T09:27:50.397Z,16.00
2022-11-29T09:30:51.771Z,13.23
2022-11-29T09:33:54.316Z,17.15
2022-11-29T09:36:55.788Z,13.85
2022-11-29T09:39:57.221Z,18.97
2022-11-29T09:43:04.816Z,16.80
2022-11-29T09:46:18.176Z,21.80
2022-11-29T09:49:48.291Z,15.32
2022-11-29T09:53:07.575Z,13.85
2022-11-29T09:56:21.951Z,14.43
2022-11-29T09:59:29.031Z,13.15
2022-11-29T10:02:45.216Z,13.07
2022-11-29T10:05:52.298Z,12.25
2022-11-29T10:08:55.971Z,14.23
2022-11-29T10:12:07.225Z,12.23
2022-11-29T10:15:14.159Z,18.33
2022-11-29T10:18:38.396Z,15.13
2022-11-29T10:21:43.178Z,13.13
2022-11-29T10:24:51.670Z,16.50
2022-11-29T10:27:54.344Z,13.63
2022-11-29T10:30:58.883Z,19.52
2022-11-29T10:34:07.964Z,17.88
2022-11-29T10:37:21.840Z,14.52
2022-11-29T10:40:33.437Z,18.13
2022-11-29T10:43:37.236Z,17.43
2022-11-29T10:46:38.800Z,18.15
2022-11-29T10:49:40.342Z,16.67
2022-11-29T10:52:41.783Z,19.43
2022-11-29T10:55:45.546Z,20.75
2022-11-29T10:59:03.186Z,20.85
2022-11-29T11:02:06.565Z,20.92
2022-11-29T11:05:18.655Z,22.73
2022-11-29T11:08:20.402Z,23.02
2022-11-29T11:11:31.228Z,24.27
2022-11-29T11:14:37.464Z,24.00
2022-11-29T11:17:42.084Z,29.88
2022-11-29T11:20:51.285Z,26.00
2022-11-29T11:23:59.493Z,23.23
2022-11-29T11:27:01.499Z,23.42
2022-11-29T11:30:06.163Z,24.77
2022-11-29T11:33:20.049Z,23.00
2022-11-29T11:36:23.063Z,21.95
2022-11-29T11:39:27.809Z,23.02
2022-11-29T11:42:38.265Z,23.02
2022-11-29T11:45:39.708Z,23.45
2022-11-29T11:48:42.359Z,28.10
2022-11-29T11:51:43.978Z,24.10
2022-11-29T11:54:49.221Z,27.73
2022-11-29T11:58:12.031Z,28.75
2022-11-29T12:01:17.244Z,29.67
2022-11-29T12:04:25.040Z,27.13
2022-11-29T12:08:06.719Z,27.98
2022-11-29T12:11:07.699Z,24.77
2022-11-29T12:14:20.300Z,25.48
2022-11-29T12:20:38.656Z,30.60
2022-11-29T12:23:59.850Z,24.65
2022-11-29T12:27:05.112Z,26.42
2022-11-29T12:30:13.593Z,21.80
2022-11-29T12:33:24.011Z,24.42
2022-11-29T12:36:46.761Z,23.55
2022-11-29T12:40:03.533Z,24.30
2022-11-29T12:43:24.958Z,21.23
2022-11-29T12:46:29.080Z,22.58
2022-11-29T12:49:41.169Z,23.83
2022-11-29T12:53:01.498Z,17.88
2022-11-29T12:56:13.568Z,19.63
2022-11-29T12:59:33.227Z,22.08
2022-11-29T13:02:47.245Z,19.90
2022-11-29T13:05:59.306Z,22.27
2022-11-29T13:09:17.954Z,21.90
2022-11-29T13:12:33.004Z,17.52
2022-11-29T13:15:57.884Z,22.48
2022-11-29T13:19:17.828Z,18.02
2022-11-29T13:22:44.150Z,19.85
2022-11-29T13:25:50.861Z,20.00
2022-11-29T13:28:53.493Z,22.65
2022-11-29T13:31:55.074Z,21.90
2022-11-29T13:35:01.796Z,25.75
2022-11-29T13:38:29.528Z,23.98
2022-11-29T13:41:37.672Z,22.17
2022-11-29T13:44:58.901Z,24.70
2022-11-29T13:48:01.901Z,21.98
2022-11-29T13:51:30.296Z,20.95
2022-11-29T13:54:33.703Z,26.80
2022-11-29T13:58:14.453Z,28.02
2022-11-29T14:01:14.340Z,23.33
2022-11-29T14:04:28.081Z,20.77
2022-11-29T14:07:29.527Z,19.40
2022-11-29T14:10:32.709Z,19.77
2022-11-29T14:13:54.961Z,20.27
2022-11-29T14:17:01.672Z,19.80
2022-11-29T14:20:25.283Z,22.75
2022-11-29T14:23:33.524Z,20.63
2022-11-29T14:26:35.103Z,18.58
2022-11-29T14:30:02.755Z,21.27
2022-11-29T14:33:18.502Z,19.17
2022-11-29T14:36:43.597Z,21.35
2022-11-29T14:39:52.649Z,20.10
2022-11-29T14:42:54.351Z,17.42
2022-11-29T14:46:13.777Z,18.63
2022-11-29T14:49:23.553Z,18.20
2022-11-29T14:52:29.151Z,18.58
2022-11-29T14:55:35.246Z,17.73
2022-11-29T14:58:36.733Z,17.90
2022-11-29T15:01:43.882Z,20.23
2022-11-29T15:04:47.892Z,19.25
2022-11-29T15:08:06.466Z,22.38
2022-11-29T15:11:26.069Z,23.23
2022-11-29T15:14:53.888Z,22.60
2022-11-29T15:18:03.384Z,25.13
2022-11-29T15:21:32.543Z,24.55
2022-11-29T15:25:07.103Z,25.38
2022-11-29T15:28:22.569Z,26.52
2022-11-29T15:31:24.250Z,23.90
2022-11-29T15:34:39.729Z,31.27
2022-11-29T15:37:44.541Z,27.77
2022-11-29T15:40:52.802Z,25.30
2022-11-29T15:43:59.802Z,26.27
2022-11-29T15:47:23.675Z,26.13
2022-11-29T15:50:34.138Z,23.08
2022-11-29T15:53:40.975Z,28.92
2022-11-29T15:56:48.706Z,23.98
2022-11-29T15:59:55.251Z,29.05
2022-11-29T16:03:02.029Z,26.35
2022-11-29T16:06:08.978Z,27.20
2022-11-29T16:09:22.732Z,22.85
2022-11-29T16:12:24.525Z,24.77
2022-11-29T16:15:32.719Z,24.95
2022-11-29T16:18:34.733Z,21.60
2022-11-29T16:21:36.290Z,24.05
2022-11-29T16:24:40.419Z,23.53
2022-11-29T16:27:42.741Z,25.17
2022-11-29T16:33:47.443Z,24.98
2022-11-29T16:37:01.187Z,26.13
2022-11-29T16:40:03.094Z,24.70
2022-11-29T16:43:04.558Z,27.70
2022-11-29T16:46:30.074Z,29.63
2022-11-29T16:49:34.964Z,27.75
2022-11-29T16:52:36.396Z,25.60
2022-11-29T16:55:37.783Z,27.93
2022-11-29T16:59:17.068Z,27.92
2022-11-29T17:02:02.242Z,26.45
2022-11-29T17:05:03.904Z,27.23
2022-11-29T17:08:05.603Z,28.57
2022-11-29T17:11:07.101Z,27.42
2022-11-29T17:14:09.453Z,27.92
2022-11-29T17:17:15.654Z,31.30
2022-11-29T17:20:17.180Z,31.02
2022-11-29T17:23:18.631Z,29.53
2022-11-29T17:26:21.880Z,30.65
2022-11-29T17:29:23.598Z,27.40
2022-11-29T17:32:26.859Z,28.33
2022-11-29T17:35:28.629Z,25.98
2022-11-29T17:38:30.045Z,28.07
2022-11-29T17:41:32.654Z,27.85
2022-11-29T17:44:34.247Z,25.95
2022-11-29T17:47:35.684Z,28.88
2022-11-29T17:50:38.186Z,28.97
2022-11-29T17:53:39.615Z,29.00
2022-11-29T17:56:41.033Z,31.73
2022-11-29T17:59:42.474Z,30.95
2022-11-29T18:02:44.053Z,28.77
2022-11-29T18:05:45.511Z,31.70
2022-11-29T18:08:49.292Z,38.72
2022-11-29T18:11:50.888Z,35.67
2022-11-29T18:14:52.330Z,33.53
2022-11-29T18:17:53.736Z,39.72
2022-11-29T18:21:00.106Z,40.83
2022-11-29T18:24:03.675Z,39.35
2022-11-29T18:27:05.209Z,38.92
2022-11-29T18:30:07.415Z,38.37
2022-11-29T18:33:08.825Z,41.92
2022-11-29T18:36:13.282Z,37.92
2022-11-29T18:39:17.365Z,37.50
2022-11-29T18:42:18.800Z,43.00
2022-11-29T18:45:20.253Z,44.87
2022-11-29T18:48:21.766Z,40.70
2022-11-29T18:51:23.143Z,40.37
2022-11-29T18:54:24.632Z,39.05
2022-11-29T18:57:26.046Z,39.67
2022-11-29T19:00:27.469Z,37.73
2022-11-29T19:03:29.050Z,38.47
2022-11-29T19:06:39.295Z,38.72
2022-11-29T19:09:41.516Z,39.22
2022-11-29T19:12:42.981Z,45.23
2022-11-29T19:15:51.395Z,42.93
2022-11-29T19:18:55.409Z,42.97
2022-11-29T19:21:56.824Z,39.97
2022-11-29T19:24:58.284Z,38.40
2022-11-29T19:27:59.670Z,41.90
2022-11-29T19:31:01.135Z,39.67
2022-11-29T19:34:02.578Z,37.10
2022-11-29T19:37:04.396Z,42.67
2022-11-29T19:40:06.606Z,40.13
2022-11-29T19:43:08.042Z,41.13
2022-11-29T19:46:17.611Z,41.22
2022-11-29T19:49:19.030Z,45.65
2022-11-29T19:52:20.455Z,43.33
2022-11-29T19:58:25.087Z,37.55
2022-11-29T20:07:40.768Z,35.55
2022-11-29T20:10:42.206Z,39.80
2022-11-29T20:13:45.676Z,42.53
2022-11-29T20:16:47.107Z,41.22
2022-11-29T20:19:48.849Z,42.67
2022-11-29T20:22:52.323Z,42.58
2022-11-29T20:25:55.238Z,42.08
2022-11-29T20:28:56.709Z,41.70
2022-11-29T20:31:58.378Z,46.10
2022-11-29T20:35:02.319Z,48.05
2022-11-29T20:38:11.634Z,41.45
2022-11-29T20:41:21.777Z,41.47
2022-11-29T20:44:54.069Z,45.53
2022-11-29T20:48:04.307Z,46.92
2022-11-29T20:51:05.975Z,43.72
2022-11-29T20:54:10.580Z,44.22
2022-11-29T20:57:12.088Z,45.60
2022-11-29T21:00:15.527Z,44.80
2022-11-29T21:03:18.613Z,41.75
2022-11-29T21:06:20.491Z,43.10
2022-11-29T21:09:22.228Z,40.13
2022-11-29T21:12:24.047Z,46.23
2022-11-29T21:15:25.870Z,46.28
2022-11-29T21:18:29.041Z,44.28
2022-11-29T21:21:40.131Z,48.28
2022-11-29T21:24:53.194Z,47.63
2022-11-29T21:27:55.165Z,44.72
2022-11-29T21:30:56.979Z,48.45
2022-11-29T21:33:58.792Z,45.90
2022-11-29T21:37:00.655Z,45.58
2022-11-29T21:40:02.088Z,45.17
2022-11-29T21:43:03.508Z,47.30
2022-11-29T21:46:05.059Z,46.70
2022-11-29T21:49:06.658Z,45.85
2022-11-29T21:52:08.066Z,47.77
2022-11-29T21:55:09.768Z,49.17
2022-11-29T21:58:11.161Z,48.38
2022-11-29T22:01:16.861Z,46.05
2022-11-29T22:04:18.629Z,47.38
2022-11-29T22:07:20.076Z,51.08
2022-11-29T22:10:21.508Z,48.17
2022-11-29T22:13:23.017Z,47.47
2022-11-29T22:16:25.197Z,45.17
2022-11-29T22:19:34.620Z,43.42
2022-11-29T22:22:36.055Z,46.33
2022-11-29T22:25:37.478Z,45.10
2022-11-29T22:28:38.863Z,45.60
2022-11-29T22:31:45.359Z,52.45
2022-11-29T22:34:47.012Z,44.13
2022-11-29T22:37:48.556Z,48.53
2022-11-29T22:40:49.934Z,48.07
2022-11-29T22:43:51.589Z,40.13
2022-11-29T22:46:53.224Z,40.75
2022-11-29T22:49:54.770Z,44.10
2022-11-29T22:52:56.169Z,41.43
2022-11-29T22:56:02.428Z,37.33
2022-11-29T22:59:04.665Z,45.88
2022-11-29T23:02:06.100Z,37.63
2022-11-29T23:05:08.021Z,41.77
2022-11-29T23:08:09.440Z,41.67
2022-11-29T23:11:17.508Z,38.50
2022-11-29T23:14:19.779Z,36.22
2022-11-29T23:20:22.673Z,35.67
2022-11-29T23:23:24.243Z,37.58
2022-11-29T23:26:36.417Z,39.72
2022-11-29T23:29:37.836Z,38.53
2022-11-29T23:32:40.764Z,36.90
2022-11-29T23:35:42.303Z,37.27
2022-11-29T23:38:44.026Z,36.08
2022-11-29T23:41:45.449Z,35.65
2022-11-29T23:44:47.105Z,39.80
2022-11-29T23:47:48.710Z,43.55
2022-11-29T23:50:50.124Z,40.00
2022-11-29T23:53:53.063Z,39.20
2022-11-29T23:56:54.470Z,36.83
2022-11-29T23:59:55.862Z,34.60
